Morgan, Colorado
Current Conditions -  °F | °C
As of 1:52 PM on Tuesday 21 Oct 2014 (Local Time) from KALS Reporting Station
Overcast Overcast  
Wind Chill: 59°   Ceiling: 8000
Heat Index: 59°   Visibility: 10mi
Dew Point: 36°   Wind: 3mph
Humidity: 42%   Direction: NA
Pressure: 30.15"   Gusts: NA
Location:  37.3121°N, 106.036°W
Report Text: KALS 211952Z AUTO VRB03KT 10SM OVC080 15/02 A3015 RMK AO2 SLP154 T01500022
Loading
Personal Weather Stations






























Interactive Weather Map
Tropical Storm Tracking
New forecast layout! Learn more

10-Day Weather Forecast

Advertisements
Track Severe Weather on mobile